sensor_id;sensor_type;location;lat;lon;timestamp;P1;durP1;ratioP1;P2;durP2;ratioP2
44248;SDS011;29923;48.718;9.272;2023-04-06T00:00:47;17.05;;;7.85;;
44248;SDS011;29923;48.718;9.272;2023-04-06T00:03:13;12.52;;;7.90;;
44248;SDS011;29923;48.718;9.272;2023-04-06T00:05:38;14.02;;;8.07;;
44248;SDS011;29923;48.718;9.272;2023-04-06T00:08:04;16.10;;;7.90;;
44248;SDS011;29923;48.718;9.272;2023-04-06T00:10:30;15.50;;;9.23;;
44248;SDS011;29923;48.718;9.272;2023-04-06T00:12:55;22.77;;;8.85;;
44248;SDS011;29923;48.718;9.272;2023-04-06T00:15:22;18.05;;;8.68;;
44248;SDS011;29923;48.718;9.272;2023-04-06T00:17:47;15.88;;;9.07;;
44248;SDS011;29923;48.718;9.272;2023-04-06T00:20:13;15.63;;;8.80;;
44248;SDS011;29923;48.718;9.272;2023-04-06T00:22:39;15.85;;;9.00;;
44248;SDS011;29923;48.718;9.272;2023-04-06T00:25:05;18.15;;;8.35;;
44248;SDS011;29923;48.718;9.272;2023-04-06T00:27:31;18.98;;;8.20;;
44248;SDS011;29923;48.718;9.272;2023-04-06T00:29:56;17.35;;;8.30;;
44248;SDS011;29923;48.718;9.272;2023-04-06T00:32:22;17.45;;;9.18;;
44248;SDS011;29923;48.718;9.272;2023-04-06T00:34:47;16.90;;;8.48;;
44248;SDS011;29923;48.718;9.272;2023-04-06T00:37:13;14.98;;;9.43;;
44248;SDS011;29923;48.718;9.272;2023-04-06T00:39:38;18.90;;;9.65;;
44248;SDS011;29923;48.718;9.272;2023-04-06T00:42:07;23.17;;;10.30;;
44248;SDS011;29923;48.718;9.272;2023-04-06T00:44:42;18.67;;;9.70;;
44248;SDS011;29923;48.718;9.272;2023-04-06T00:47:08;15.52;;;9.70;;
44248;SDS011;29923;48.718;9.272;2023-04-06T00:49:33;17.23;;;10.68;;
44248;SDS011;29923;48.718;9.272;2023-04-06T00:51:59;14.20;;;9.40;;
44248;SDS011;29923;48.718;9.272;2023-04-06T00:54:26;17.70;;;9.50;;
44248;SDS011;29923;48.718;9.272;2023-04-06T00:56:51;14.50;;;9.15;;
44248;SDS011;29923;48.718;9.272;2023-04-06T00:59:16;17.20;;;9.70;;
44248;SDS011;29923;48.718;9.272;2023-04-06T01:01:42;15.13;;;8.80;;
44248;SDS011;29923;48.718;9.272;2023-04-06T01:04:07;16.65;;;10.23;;
44248;SDS011;29923;48.718;9.272;2023-04-06T01:06:33;15.38;;;9.77;;
44248;SDS011;29923;48.718;9.272;2023-04-06T01:08:58;16.63;;;10.40;;
44248;SDS011;29923;48.718;9.272;2023-04-06T01:11:24;16.45;;;10.13;;
44248;SDS011;29923;48.718;9.272;2023-04-06T01:13:49;18.02;;;10.45;;
44248;SDS011;29923;48.718;9.272;2023-04-06T01:16:15;25.15;;;11.57;;
44248;SDS011;29923;48.718;9.272;2023-04-06T01:18:41;21.88;;;11.07;;
44248;SDS011;29923;48.718;9.272;2023-04-06T01:21:07;18.63;;;10.68;;
44248;SDS011;29923;48.718;9.272;2023-04-06T01:23:33;19.63;;;9.85;;
44248;SDS011;29923;48.718;9.272;2023-04-06T01:25:59;15.80;;;9.80;;
44248;SDS011;29923;48.718;9.272;2023-04-06T01:28:25;17.23;;;9.68;;
44248;SDS011;29923;48.718;9.272;2023-04-06T01:30:50;25.80;;;10.93;;
44248;SDS011;29923;48.718;9.272;2023-04-06T01:33:16;19.73;;;11.23;;
44248;SDS011;29923;48.718;9.272;2023-04-06T01:35:41;15.15;;;9.95;;
44248;SDS011;29923;48.718;9.272;2023-04-06T01:38:07;19.35;;;11.18;;
44248;SDS011;29923;48.718;9.272;2023-04-06T01:40:32;16.27;;;10.65;;
44248;SDS011;29923;48.718;9.272;2023-04-06T01:42:58;18.23;;;10.95;;
44248;SDS011;29923;48.718;9.272;2023-04-06T01:45:23;19.17;;;11.05;;
44248;SDS011;29923;48.718;9.272;2023-04-06T01:47:48;16.55;;;10.95;;
44248;SDS011;29923;48.718;9.272;2023-04-06T01:50:14;20.85;;;11.50;;
44248;SDS011;29923;48.718;9.272;2023-04-06T01:52:39;22.17;;;11.20;;
44248;SDS011;29923;48.718;9.272;2023-04-06T01:55:06;20.55;;;11.20;;
44248;SDS011;29923;48.718;9.272;2023-04-06T01:57:31;20.77;;;11.75;;
44248;SDS011;29923;48.718;9.272;2023-04-06T01:59:57;17.80;;;10.88;;
44248;SDS011;29923;48.718;9.272;2023-04-06T02:02:22;18.48;;;11.48;;
44248;SDS011;29923;48.718;9.272;2023-04-06T02:04:47;23.27;;;10.73;;
44248;SDS011;29923;48.718;9.272;2023-04-06T02:07:13;18.83;;;9.95;;
44248;SDS011;29923;48.718;9.272;2023-04-06T02:09:38;17.65;;;10.23;;
44248;SDS011;29923;48.718;9.272;2023-04-06T02:12:04;20.70;;;10.60;;
44248;SDS011;29923;48.718;9.272;2023-04-06T02:14:29;17.10;;;10.85;;
44248;SDS011;29923;48.718;9.272;2023-04-06T02:16:55;17.15;;;10.63;;
44248;SDS011;29923;48.718;9.272;2023-04-06T02:19:20;16.92;;;9.60;;
44248;SDS011;29923;48.718;9.272;2023-04-06T02:21:46;16.50;;;10.43;;
44248;SDS011;29923;48.718;9.272;2023-04-06T02:24:11;18.05;;;10.05;;
44248;SDS011;29923;48.718;9.272;2023-04-06T02:26:36;18.35;;;12.02;;
44248;SDS011;29923;48.718;9.272;2023-04-06T02:29:02;24.40;;;11.10;;
44248;SDS011;29923;48.718;9.272;2023-04-06T02:31:27;18.02;;;11.23;;
44248;SDS011;29923;48.718;9.272;2023-04-06T02:33:53;20.35;;;11.85;;
44248;SDS011;29923;48.718;9.272;2023-04-06T02:36:18;22.23;;;10.98;;
44248;SDS011;29923;48.718;9.272;2023-04-06T02:38:44;19.25;;;10.82;;
44248;SDS011;29923;48.718;9.272;2023-04-06T02:41:09;17.88;;;10.75;;
44248;SDS011;29923;48.718;9.272;2023-04-06T02:43:34;14.85;;;9.52;;
44248;SDS011;29923;48.718;9.272;2023-04-06T02:46:00;21.42;;;10.63;;
44248;SDS011;29923;48.718;9.272;2023-04-06T02:48:25;16.52;;;9.00;;
44248;SDS011;29923;48.718;9.272;2023-04-06T02:50:51;22.08;;;10.07;;
44248;SDS011;29923;48.718;9.272;2023-04-06T02:53:16;20.67;;;10.10;;
44248;SDS011;29923;48.718;9.272;2023-04-06T02:55:41;16.48;;;9.98;;
44248;SDS011;29923;48.718;9.272;2023-04-06T02:58:07;22.27;;;10.93;;
44248;SDS011;29923;48.718;9.272;2023-04-06T03:00:32;18.52;;;9.30;;
44248;SDS011;29923;48.718;9.272;2023-04-06T03:02:57;18.98;;;11.05;;
44248;SDS011;29923;48.718;9.272;2023-04-06T03:05:23;15.77;;;9.90;;
44248;SDS011;29923;48.718;9.272;2023-04-06T03:07:48;23.52;;;10.82;;
44248;SDS011;29923;48.718;9.272;2023-04-06T03:10:13;17.92;;;9.55;;
44248;SDS011;29923;48.718;9.272;2023-04-06T03:12:39;17.42;;;9.57;;
44248;SDS011;29923;48.718;9.272;2023-04-06T03:15:06;16.08;;;10.25;;
44248;SDS011;29923;48.718;9.272;2023-04-06T03:17:32;23.42;;;9.98;;
44248;SDS011;29923;48.718;9.272;2023-04-06T03:19:58;18.25;;;9.63;;
44248;SDS011;29923;48.718;9.272;2023-04-06T03:22:23;17.23;;;9.55;;
44248;SDS011;29923;48.718;9.272;2023-04-06T03:24:49;19.63;;;10.13;;
44248;SDS011;29923;48.718;9.272;2023-04-06T03:27:14;20.50;;;9.55;;
44248;SDS011;29923;48.718;9.272;2023-04-06T03:29:39;17.40;;;9.75;;
44248;SDS011;29923;48.718;9.272;2023-04-06T03:32:05;19.02;;;9.65;;
44248;SDS011;29923;48.718;9.272;2023-04-06T03:34:30;19.25;;;10.05;;
44248;SDS011;29923;48.718;9.272;2023-04-06T03:36:56;18.30;;;9.73;;
44248;SDS011;29923;48.718;9.272;2023-04-06T03:39:21;19.38;;;9.30;;
44248;SDS011;29923;48.718;9.272;2023-04-06T03:41:46;23.85;;;10.32;;
44248;SDS011;29923;48.718;9.272;2023-04-06T03:44:12;28.52;;;10.73;;
44248;SDS011;29923;48.718;9.272;2023-04-06T03:46:37;18.95;;;9.65;;
44248;SDS011;29923;48.718;9.272;2023-04-06T03:49:03;22.92;;;11.05;;
44248;SDS011;29923;48.718;9.272;2023-04-06T03:51:28;23.05;;;11.10;;
44248;SDS011;29923;48.718;9.272;2023-04-06T03:53:53;19.02;;;10.65;;
44248;SDS011;29923;48.718;9.272;2023-04-06T03:56:19;25.70;;;12.02;;
44248;SDS011;29923;48.718;9.272;2023-04-06T03:58:45;27.20;;;11.68;;
44248;SDS011;29923;48.718;9.272;2023-04-06T04:01:14;23.05;;;11.65;;
44248;SDS011;29923;48.718;9.272;2023-04-06T04:03:39;25.08;;;11.50;;
44248;SDS011;29923;48.718;9.272;2023-04-06T04:06:05;25.08;;;11.90;;
44248;SDS011;29923;48.718;9.272;2023-04-06T04:08:30;20.70;;;11.80;;
44248;SDS011;29923;48.718;9.272;2023-04-06T04:10:56;20.48;;;12.07;;
44248;SDS011;29923;48.718;9.272;2023-04-06T04:13:21;20.98;;;11.48;;
44248;SDS011;29923;48.718;9.272;2023-04-06T04:15:47;21.45;;;11.18;;
44248;SDS011;29923;48.718;9.272;2023-04-06T04:18:12;20.02;;;9.90;;
44248;SDS011;29923;48.718;9.272;2023-04-06T04:20:38;13.40;;;9.23;;
44248;SDS011;29923;48.718;9.272;2023-04-06T04:23:03;21.48;;;10.38;;
44248;SDS011;29923;48.718;9.272;2023-04-06T04:25:29;20.00;;;10.57;;
44248;SDS011;29923;48.718;9.272;2023-04-06T04:27:54;21.85;;;11.30;;
44248;SDS011;29923;48.718;9.272;2023-04-06T04:30:20;18.25;;;9.70;;
44248;SDS011;29923;48.718;9.272;2023-04-06T04:32:46;18.83;;;9.63;;
44248;SDS011;29923;48.718;9.272;2023-04-06T04:35:11;14.82;;;9.82;;
44248;SDS011;29923;48.718;9.272;2023-04-06T04:37:38;18.63;;;10.75;;
44248;SDS011;29923;48.718;9.272;2023-04-06T04:40:04;16.67;;;10.20;;
44248;SDS011;29923;48.718;9.272;2023-04-06T04:42:30;18.15;;;11.10;;
44248;SDS011;29923;48.718;9.272;2023-04-06T04:44:55;22.20;;;11.82;;
44248;SDS011;29923;48.718;9.272;2023-04-06T04:47:20;17.08;;;10.45;;
44248;SDS011;29923;48.718;9.272;2023-04-06T04:49:46;19.15;;;10.80;;
44248;SDS011;29923;48.718;9.272;2023-04-06T04:52:11;18.75;;;11.73;;
44248;SDS011;29923;48.718;9.272;2023-04-06T04:54:36;19.30;;;12.15;;
44248;SDS011;29923;48.718;9.272;2023-04-06T04:57:02;19.73;;;11.82;;
44248;SDS011;29923;48.718;9.272;2023-04-06T04:59:28;20.73;;;11.43;;
44248;SDS011;29923;48.718;9.272;2023-04-06T05:01:54;21.25;;;10.63;;
44248;SDS011;29923;48.718;9.272;2023-04-06T05:04:20;19.50;;;10.65;;
44248;SDS011;29923;48.718;9.272;2023-04-06T05:06:45;23.20;;;11.40;;
44248;SDS011;29923;48.718;9.272;2023-04-06T05:09:11;15.90;;;10.10;;
44248;SDS011;29923;48.718;9.272;2023-04-06T05:11:36;23.67;;;10.48;;
44248;SDS011;29923;48.718;9.272;2023-04-06T05:14:01;16.67;;;10.80;;
44248;SDS011;29923;48.718;9.272;2023-04-06T05:16:27;21.70;;;11.38;;
44248;SDS011;29923;48.718;9.272;2023-04-06T05:18:52;34.47;;;21.48;;
44248;SDS011;29923;48.718;9.272;2023-04-06T05:21:18;27.33;;;12.45;;
44248;SDS011;29923;48.718;9.272;2023-04-06T05:23:43;18.27;;;10.55;;
44248;SDS011;29923;48.718;9.272;2023-04-06T05:26:09;21.13;;;11.05;;
44248;SDS011;29923;48.718;9.272;2023-04-06T05:28:34;20.92;;;11.80;;
44248;SDS011;29923;48.718;9.272;2023-04-06T05:31:00;19.75;;;11.02;;
44248;SDS011;29923;48.718;9.272;2023-04-06T05:33:26;22.65;;;11.57;;
44248;SDS011;29923;48.718;9.272;2023-04-06T05:35:51;20.30;;;11.75;;
44248;SDS011;29923;48.718;9.272;2023-04-06T05:38:16;20.48;;;11.30;;
44248;SDS011;29923;48.718;9.272;2023-04-06T05:40:42;17.58;;;10.63;;
44248;SDS011;29923;48.718;9.272;2023-04-06T05:43:07;21.30;;;9.95;;
44248;SDS011;29923;48.718;9.272;2023-04-06T05:45:33;17.50;;;10.75;;
44248;SDS011;29923;48.718;9.272;2023-04-06T05:47:59;20.92;;;11.98;;
44248;SDS011;29923;48.718;9.272;2023-04-06T05:50:25;19.05;;;11.50;;
44248;SDS011;29923;48.718;9.272;2023-04-06T05:52:50;41.85;;;26.45;;
44248;SDS011;29923;48.718;9.272;2023-04-06T05:55:16;21.10;;;11.98;;
44248;SDS011;29923;48.718;9.272;2023-04-06T05:57:41;20.25;;;10.40;;
44248;SDS011;29923;48.718;9.272;2023-04-06T06:00:07;27.33;;;11.55;;
44248;SDS011;29923;48.718;9.272;2023-04-06T06:02:36;22.83;;;11.40;;
44248;SDS011;29923;48.718;9.272;2023-04-06T06:05:01;15.93;;;9.32;;
44248;SDS011;29923;48.718;9.272;2023-04-06T06:07:27;19.20;;;10.70;;
44248;SDS011;29923;48.718;9.272;2023-04-06T06:09:52;16.67;;;10.43;;
44248;SDS011;29923;48.718;9.272;2023-04-06T06:12:21;19.58;;;10.18;;
44248;SDS011;29923;48.718;9.272;2023-04-06T06:14:47;18.20;;;10.93;;
44248;SDS011;29923;48.718;9.272;2023-04-06T06:17:12;16.58;;;9.98;;
44248;SDS011;29923;48.718;9.272;2023-04-06T06:19:40;17.95;;;9.93;;
44248;SDS011;29923;48.718;9.272;2023-04-06T06:22:05;18.85;;;10.18;;
44248;SDS011;29923;48.718;9.272;2023-04-06T06:24:30;16.98;;;10.85;;
44248;SDS011;29923;48.718;9.272;2023-04-06T06:26:56;17.70;;;9.50;;
44248;SDS011;29923;48.718;9.272;2023-04-06T06:29:21;23.05;;;10.88;;
44248;SDS011;29923;48.718;9.272;2023-04-06T06:31:46;16.15;;;10.27;;
44248;SDS011;29923;48.718;9.272;2023-04-06T06:34:12;18.35;;;11.05;;
44248;SDS011;29923;48.718;9.272;2023-04-06T06:36:38;18.33;;;11.20;;
44248;SDS011;29923;48.718;9.272;2023-04-06T06:39:03;17.92;;;10.70;;
44248;SDS011;29923;48.718;9.272;2023-04-06T06:41:29;18.25;;;11.07;;
44248;SDS011;29923;48.718;9.272;2023-04-06T06:43:54;19.60;;;11.63;;
44248;SDS011;29923;48.718;9.272;2023-04-06T06:46:20;24.35;;;10.30;;
44248;SDS011;29923;48.718;9.272;2023-04-06T06:48:45;21.30;;;10.38;;
44248;SDS011;29923;48.718;9.272;2023-04-06T06:51:11;23.83;;;11.93;;
44248;SDS011;29923;48.718;9.272;2023-04-06T06:53:36;21.13;;;11.70;;
44248;SDS011;29923;48.718;9.272;2023-04-06T06:56:02;18.73;;;11.70;;
44248;SDS011;29923;48.718;9.272;2023-04-06T06:58:27;21.55;;;11.07;;
44248;SDS011;29923;48.718;9.272;2023-04-06T07:00:59;18.17;;;11.25;;
44248;SDS011;29923;48.718;9.272;2023-04-06T07:03:25;18.23;;;10.60;;
44248;SDS011;29923;48.718;9.272;2023-04-06T07:05:50;17.38;;;11.30;;
44248;SDS011;29923;48.718;9.272;2023-04-06T07:08:22;23.80;;;11.23;;
44248;SDS011;29923;48.718;9.272;2023-04-06T07:10:49;14.40;;;10.15;;
44248;SDS011;29923;48.718;9.272;2023-04-06T07:13:17;18.42;;;10.90;;
44248;SDS011;29923;48.718;9.272;2023-04-06T07:15:46;18.13;;;10.98;;
44248;SDS011;29923;48.718;9.272;2023-04-06T07:18:12;17.92;;;11.13;;
44248;SDS011;29923;48.718;9.272;2023-04-06T07:20:37;20.42;;;10.80;;
44248;SDS011;29923;48.718;9.272;2023-04-06T07:23:03;20.63;;;11.00;;
44248;SDS011;29923;48.718;9.272;2023-04-06T07:25:28;28.23;;;11.48;;
44248;SDS011;29923;48.718;9.272;2023-04-06T07:27:54;18.85;;;11.13;;
44248;SDS011;29923;48.718;9.272;2023-04-06T07:30:20;19.25;;;11.25;;
44248;SDS011;29923;48.718;9.272;2023-04-06T07:32:46;22.70;;;11.98;;
44248;SDS011;29923;48.718;9.272;2023-04-06T07:35:12;18.98;;;11.18;;
44248;SDS011;29923;48.718;9.272;2023-04-06T07:37:37;19.55;;;11.48;;
44248;SDS011;29923;48.718;9.272;2023-04-06T07:40:03;19.25;;;10.48;;
44248;SDS011;29923;48.718;9.272;2023-04-06T07:42:28;17.88;;;11.18;;
44248;SDS011;29923;48.718;9.272;2023-04-06T07:44:54;26.90;;;11.25;;
44248;SDS011;29923;48.718;9.272;2023-04-06T07:47:19;30.58;;;10.80;;
44248;SDS011;29923;48.718;9.272;2023-04-06T07:49:45;19.85;;;10.77;;
44248;SDS011;29923;48.718;9.272;2023-04-06T07:52:10;18.10;;;11.02;;
44248;SDS011;29923;48.718;9.272;2023-04-06T07:54:35;24.30;;;11.85;;
44248;SDS011;29923;48.718;9.272;2023-04-06T07:57:01;19.67;;;11.10;;
44248;SDS011;29923;48.718;9.272;2023-04-06T07:59:26;18.83;;;10.68;;
44248;SDS011;29923;48.718;9.272;2023-04-06T08:01:51;16.15;;;9.77;;
44248;SDS011;29923;48.718;9.272;2023-04-06T08:04:17;19.17;;;11.15;;
44248;SDS011;29923;48.718;9.272;2023-04-06T08:06:42;29.25;;;10.88;;
44248;SDS011;29923;48.718;9.272;2023-04-06T08:09:07;18.58;;;12.98;;
44248;SDS011;29923;48.718;9.272;2023-04-06T08:11:33;20.83;;;11.20;;
44248;SDS011;29923;48.718;9.272;2023-04-06T08:13:58;20.02;;;10.40;;
44248;SDS011;29923;48.718;9.272;2023-04-06T08:16:24;16.50;;;10.10;;
44248;SDS011;29923;48.718;9.272;2023-04-06T08:18:49;18.35;;;10.57;;
44248;SDS011;29923;48.718;9.272;2023-04-06T08:21:15;14.73;;;9.88;;
44248;SDS011;29923;48.718;9.272;2023-04-06T08:23:40;15.20;;;9.93;;
44248;SDS011;29923;48.718;9.272;2023-04-06T08:26:06;16.67;;;9.55;;
44248;SDS011;29923;48.718;9.272;2023-04-06T08:28:31;16.17;;;10.20;;
44248;SDS011;29923;48.718;9.272;2023-04-06T08:30:57;16.60;;;9.45;;
44248;SDS011;29923;48.718;9.272;2023-04-06T08:33:22;15.23;;;9.90;;
44248;SDS011;29923;48.718;9.272;2023-04-06T08:35:48;17.65;;;10.23;;
44248;SDS011;29923;48.718;9.272;2023-04-06T08:38:13;16.52;;;9.48;;
44248;SDS011;29923;48.718;9.272;2023-04-06T08:40:39;27.90;;;12.73;;
44248;SDS011;29923;48.718;9.272;2023-04-06T08:43:08;17.88;;;10.25;;
44248;SDS011;29923;48.718;9.272;2023-04-06T08:45:36;18.67;;;9.55;;
44248;SDS011;29923;48.718;9.272;2023-04-06T08:48:02;15.48;;;8.82;;
44248;SDS011;29923;48.718;9.272;2023-04-06T08:50:29;16.85;;;9.68;;
44248;SDS011;29923;48.718;9.272;2023-04-06T08:52:55;17.58;;;9.50;;
44248;SDS011;29923;48.718;9.272;2023-04-06T08:55:21;15.13;;;8.82;;
44248;SDS011;29923;48.718;9.272;2023-04-06T08:57:47;17.23;;;10.10;;
44248;SDS011;29923;48.718;9.272;2023-04-06T09:00:13;17.02;;;8.60;;
44248;SDS011;29923;48.718;9.272;2023-04-06T09:02:40;16.17;;;9.23;;
44248;SDS011;29923;48.718;9.272;2023-04-06T09:05:07;15.40;;;10.25;;
44248;SDS011;29923;48.718;9.272;2023-04-06T09:07:33;18.40;;;10.18;;
44248;SDS011;29923;48.718;9.272;2023-04-06T09:09:58;14.23;;;9.10;;
44248;SDS011;29923;48.718;9.272;2023-04-06T09:12:27;17.20;;;10.27;;
44248;SDS011;29923;48.718;9.272;2023-04-06T09:14:54;18.05;;;10.07;;
44248;SDS011;29923;48.718;9.272;2023-04-06T09:17:24;15.13;;;9.88;;
44248;SDS011;29923;48.718;9.272;2023-04-06T09:19:51;14.82;;;9.65;;
44248;SDS011;29923;48.718;9.272;2023-04-06T09:22:17;16.77;;;9.73;;
44248;SDS011;29923;48.718;9.272;2023-04-06T09:24:45;17.20;;;10.05;;
44248;SDS011;29923;48.718;9.272;2023-04-06T09:27:12;20.00;;;10.50;;
44248;SDS011;29923;48.718;9.272;2023-04-06T09:29:38;16.27;;;10.00;;
44248;SDS011;29923;48.718;9.272;2023-04-06T09:32:04;27.90;;;20.00;;
44248;SDS011;29923;48.718;9.272;2023-04-06T09:34:30;27.00;;;10.50;;
44248;SDS011;29923;48.718;9.272;2023-04-06T09:36:56;14.50;;;9.98;;
44248;SDS011;29923;48.718;9.272;2023-04-06T09:39:21;20.00;;;10.10;;
44248;SDS011;29923;48.718;9.272;2023-04-06T09:41:50;16.55;;;9.98;;
44248;SDS011;29923;48.718;9.272;2023-04-06T09:44:16;15.32;;;9.80;;
44248;SDS011;29923;48.718;9.272;2023-04-06T09:46:42;16.77;;;10.40;;
44248;SDS011;29923;48.718;9.272;2023-04-06T09:49:08;20.05;;;10.48;;
44248;SDS011;29923;48.718;9.272;2023-04-06T09:51:49;16.65;;;10.15;;
44248;SDS011;29923;48.718;9.272;2023-04-06T09:54:20;17.17;;;9.88;;
44248;SDS011;29923;48.718;9.272;2023-04-06T09:56:49;19.85;;;9.40;;
44248;SDS011;29923;48.718;9.272;2023-04-06T10:08:24;19.42;;;8.35;;
44248;SDS011;29923;48.718;9.272;2023-04-06T10:10:53;13.00;;;8.45;;
44248;SDS011;29923;48.718;9.272;2023-04-06T10:13:19;11.90;;;7.40;;
44248;SDS011;29923;48.718;9.272;2023-04-06T10:15:45;10.13;;;6.90;;
44248;SDS011;29923;48.718;9.272;2023-04-06T10:18:10;15.10;;;6.90;;
44248;SDS011;29923;48.718;9.272;2023-04-06T10:20:38;12.60;;;6.65;;
44248;SDS011;29923;48.718;9.272;2023-04-06T10:25:52;10.43;;;6.63;;
44248;SDS011;29923;48.718;9.272;2023-04-06T10:28:19;18.42;;;6.97;;
44248;SDS011;29923;48.718;9.272;2023-04-06T10:30:45;11.20;;;6.35;;
44248;SDS011;29923;48.718;9.272;2023-04-06T10:33:17;12.95;;;7.65;;
44248;SDS011;29923;48.718;9.272;2023-04-06T10:35:44;12.77;;;7.07;;
44248;SDS011;29923;48.718;9.272;2023-04-06T10:38:10;12.50;;;7.47;;
44248;SDS011;29923;48.718;9.272;2023-04-06T10:40:38;12.77;;;7.22;;
44248;SDS011;29923;48.718;9.272;2023-04-06T10:45:36;6.53;;;4.85;;
44248;SDS011;29923;48.718;9.272;2023-04-06T10:48:18;7.85;;;5.20;;
44248;SDS011;29923;48.718;9.272;2023-04-06T10:50:47;8.02;;;4.65;;
44248;SDS011;29923;48.718;9.272;2023-04-06T10:53:23;7.45;;;5.18;;
44248;SDS011;29923;48.718;9.272;2023-04-06T10:55:50;11.77;;;6.25;;
44248;SDS011;29923;48.718;9.272;2023-04-06T10:58:16;14.82;;;7.18;;
44248;SDS011;29923;48.718;9.272;2023-04-06T11:00:48;14.65;;;7.78;;
44248;SDS011;29923;48.718;9.272;2023-04-06T11:03:14;10.52;;;6.40;;
44248;SDS011;29923;48.718;9.272;2023-04-06T11:05:44;12.88;;;7.88;;
44248;SDS011;29923;48.718;9.272;2023-04-06T11:08:10;12.73;;;6.68;;
44248;SDS011;29923;48.718;9.272;2023-04-06T11:10:46;11.98;;;7.88;;
44248;SDS011;29923;48.718;9.272;2023-04-06T11:13:12;12.00;;;7.50;;
44248;SDS011;29923;48.718;9.272;2023-04-06T11:15:37;10.23;;;6.53;;
44248;SDS011;29923;48.718;9.272;2023-04-06T11:18:03;10.02;;;6.53;;
44248;SDS011;29923;48.718;9.272;2023-04-06T11:20:29;9.90;;;6.22;;
44248;SDS011;29923;48.718;9.272;2023-04-06T11:22:55;12.10;;;6.70;;
44248;SDS011;29923;48.718;9.272;2023-04-06T11:25:20;10.02;;;6.55;;
44248;SDS011;29923;48.718;9.272;2023-04-06T11:27:46;11.00;;;5.25;;
44248;SDS011;29923;48.718;9.272;2023-04-06T11:30:12;11.98;;;5.25;;
44248;SDS011;29923;48.718;9.272;2023-04-06T11:32:44;10.60;;;5.45;;
44248;SDS011;29923;48.718;9.272;2023-04-06T11:35:20;9.48;;;4.25;;
44248;SDS011;29923;48.718;9.272;2023-04-06T11:37:48;8.30;;;4.90;;
44248;SDS011;29923;48.718;9.272;2023-04-06T11:40:14;9.40;;;4.68;;
44248;SDS011;29923;48.718;9.272;2023-04-06T11:42:40;8.45;;;4.20;;
44248;SDS011;29923;48.718;9.272;2023-04-06T11:45:06;12.85;;;4.60;;
44248;SDS011;29923;48.718;9.272;2023-04-06T11:47:36;10.10;;;4.43;;
44248;SDS011;29923;48.718;9.272;2023-04-06T11:50:09;5.60;;;3.90;;
44248;SDS011;29923;48.718;9.272;2023-04-06T11:52:37;6.03;;;3.95;;
44248;SDS011;29923;48.718;9.272;2023-04-06T11:55:37;7.85;;;4.68;;
44248;SDS011;29923;48.718;9.272;2023-04-06T11:58:01;5.50;;;4.07;;
44248;SDS011;29923;48.718;9.272;2023-04-06T12:00:27;8.50;;;4.32;;
44248;SDS011;29923;48.718;9.272;2023-04-06T12:02:59;6.00;;;4.57;;
44248;SDS011;29923;48.718;9.272;2023-04-06T12:05:25;8.20;;;4.72;;
44248;SDS011;29923;48.718;9.272;2023-04-06T12:07:50;7.10;;;4.30;;
44248;SDS011;29923;48.718;9.272;2023-04-06T12:10:15;7.10;;;4.45;;
44248;SDS011;29923;48.718;9.272;2023-04-06T12:12:41;5.45;;;4.07;;
44248;SDS011;29923;48.718;9.272;2023-04-06T12:15:06;5.70;;;4.32;;
44248;SDS011;29923;48.718;9.272;2023-04-06T12:17:32;6.43;;;4.25;;
44248;SDS011;29923;48.718;9.272;2023-04-06T12:19:58;6.80;;;4.68;;
44248;SDS011;29923;48.718;9.272;2023-04-06T12:22:23;11.02;;;4.55;;
44248;SDS011;29923;48.718;9.272;2023-04-06T12:24:48;8.63;;;4.88;;
44248;SDS011;29923;48.718;9.272;2023-04-06T12:27:14;10.82;;;4.97;;
44248;SDS011;29923;48.718;9.272;2023-04-06T12:29:39;6.20;;;4.25;;
44248;SDS011;29923;48.718;9.272;2023-04-06T12:32:04;9.55;;;4.35;;
44248;SDS011;29923;48.718;9.272;2023-04-06T12:34:31;7.40;;;5.00;;
44248;SDS011;29923;48.718;9.272;2023-04-06T12:36:56;10.98;;;4.95;;
44248;SDS011;29923;48.718;9.272;2023-04-06T12:39:22;6.90;;;4.80;;
44248;SDS011;29923;48.718;9.272;2023-04-06T12:41:47;7.00;;;4.68;;
44248;SDS011;29923;48.718;9.272;2023-04-06T12:44:13;7.50;;;4.53;;
44248;SDS011;29923;48.718;9.272;2023-04-06T12:46:38;6.85;;;4.63;;
44248;SDS011;29923;48.718;9.272;2023-04-06T12:49:04;6.78;;;4.55;;
44248;SDS011;29923;48.718;9.272;2023-04-06T12:51:29;7.70;;;4.43;;
44248;SDS011;29923;48.718;9.272;2023-04-06T12:53:56;8.10;;;4.90;;
44248;SDS011;29923;48.718;9.272;2023-04-06T12:56:21;7.47;;;4.78;;
44248;SDS011;29923;48.718;9.272;2023-04-06T12:58:47;8.00;;;5.13;;
44248;SDS011;29923;48.718;9.272;2023-04-06T13:01:13;8.00;;;5.07;;
44248;SDS011;29923;48.718;9.272;2023-04-06T13:03:39;9.85;;;4.45;;
44248;SDS011;29923;48.718;9.272;2023-04-06T13:06:04;9.48;;;5.65;;
44248;SDS011;29923;48.718;9.272;2023-04-06T13:08:30;9.13;;;4.80;;
44248;SDS011;29923;48.718;9.272;2023-04-06T13:10:55;16.75;;;5.40;;
44248;SDS011;29923;48.718;9.272;2023-04-06T13:13:27;11.05;;;5.18;;
44248;SDS011;29923;48.718;9.272;2023-04-06T13:15:54;10.35;;;4.63;;
44248;SDS011;29923;48.718;9.272;2023-04-06T13:18:23;6.40;;;4.43;;
44248;SDS011;29923;48.718;9.272;2023-04-06T13:20:49;7.13;;;4.35;;
44248;SDS011;29923;48.718;9.272;2023-04-06T13:23:15;6.28;;;4.28;;
44248;SDS011;29923;48.718;9.272;2023-04-06T13:25:40;12.98;;;5.63;;
44248;SDS011;29923;48.718;9.272;2023-04-06T13:28:06;6.68;;;4.75;;
44248;SDS011;29923;48.718;9.272;2023-04-06T13:30:32;7.30;;;4.78;;
44248;SDS011;29923;48.718;9.272;2023-04-06T13:32:57;6.85;;;4.55;;
44248;SDS011;29923;48.718;9.272;2023-04-06T13:35:23;7.60;;;4.82;;
44248;SDS011;29923;48.718;9.272;2023-04-06T13:37:48;14.48;;;5.18;;
44248;SDS011;29923;48.718;9.272;2023-04-06T13:40:14;10.32;;;5.55;;
44248;SDS011;29923;48.718;9.272;2023-04-06T13:42:39;8.02;;;4.93;;
44248;SDS011;29923;48.718;9.272;2023-04-06T13:45:06;11.55;;;5.57;;
44248;SDS011;29923;48.718;9.272;2023-04-06T13:47:32;7.63;;;5.50;;
44248;SDS011;29923;48.718;9.272;2023-04-06T13:49:57;9.63;;;5.50;;
44248;SDS011;29923;48.718;9.272;2023-04-06T13:52:23;9.15;;;5.20;;
44248;SDS011;29923;48.718;9.272;2023-04-06T13:54:48;7.55;;;5.18;;
44248;SDS011;29923;48.718;9.272;2023-04-06T13:57:14;9.43;;;5.13;;
44248;SDS011;29923;48.718;9.272;2023-04-06T13:59:39;10.00;;;4.88;;
44248;SDS011;29923;48.718;9.272;2023-04-06T14:02:06;10.52;;;5.65;;
44248;SDS011;29923;48.718;9.272;2023-04-06T14:04:32;9.55;;;5.15;;
44248;SDS011;29923;48.718;9.272;2023-04-06T14:06:59;7.05;;;5.20;;
44248;SDS011;29923;48.718;9.272;2023-04-06T14:09:25;12.35;;;4.80;;
44248;SDS011;29923;48.718;9.272;2023-04-06T14:11:50;9.48;;;4.97;;
44248;SDS011;29923;48.718;9.272;2023-04-06T14:14:16;13.40;;;5.40;;
44248;SDS011;29923;48.718;9.272;2023-04-06T14:16:42;9.75;;;4.90;;
44248;SDS011;29923;48.718;9.272;2023-04-06T14:19:10;12.35;;;5.28;;
44248;SDS011;29923;48.718;9.272;2023-04-06T14:21:40;8.73;;;5.68;;
44248;SDS011;29923;48.718;9.272;2023-04-06T14:24:09;11.90;;;4.97;;
44248;SDS011;29923;48.718;9.272;2023-04-06T14:26:35;7.93;;;5.25;;
44248;SDS011;29923;48.718;9.272;2023-04-06T14:29:01;7.85;;;4.60;;
44248;SDS011;29923;48.718;9.272;2023-04-06T14:31:27;8.07;;;5.18;;
44248;SDS011;29923;48.718;9.272;2023-04-06T14:33:52;10.57;;;5.53;;
44248;SDS011;29923;48.718;9.272;2023-04-06T14:36:18;13.95;;;5.18;;
44248;SDS011;29923;48.718;9.272;2023-04-06T14:38:43;7.20;;;4.90;;